Terminal Aerodrome Forecast
Issued by NWS

Home | Current Version | Previous Version | Text Only | Print | Product List | Glossary On
Versions: 1 2 3 4 5 6 7 8 9 10 11 12 13
000
FTUS43 KOAX 222300
TAFBFF
TAF
KBFF 222336Z 2300/2324 13008KT P6SM -RA SCT040 BKN100
     FM230300 10006KT 6SM -RA SCT030 OVC050
     FM230600 30006KT 4SM -RA BR BKN030
     FM231400 25005KT P6SM SCT025=

USA.gov is the U.S. government's official web portal to all federal, state and local government web resources and services.